createdAt,value
2017-10-04T00:00:37.000Z,59.40
2017-10-04T00:01:41.907Z,59.50
2017-10-04T00:02:46.638Z,60.20
2017-10-04T00:03:51.440Z,59.50
2017-10-04T00:04:56.320Z,59.50
2017-10-04T00:06:00.948Z,59.50
2017-10-04T00:07:05.698Z,59.60
2017-10-04T00:08:10.682Z,59.70
2017-10-04T00:09:15.499Z,59.70
2017-10-04T00:10:20.398Z,59.70
2017-10-04T00:11:25.282Z,59.60
2017-10-04T00:12:30.182Z,59.60
2017-10-04T00:13:34.803Z,59.60
2017-10-04T00:14:39.412Z,59.60
2017-10-04T00:15:44.382Z,59.60
2017-10-04T00:16:49.230Z,59.60
2017-10-04T00:17:54.036Z,59.60
2017-10-04T00:18:58.887Z,59.60
2017-10-04T00:20:03.495Z,59.60
2017-10-04T00:21:08.153Z,59.60
2017-10-04T00:22:13.167Z,59.70
2017-10-04T00:23:18.148Z,59.80
2017-10-04T00:24:23.104Z,59.70
2017-10-04T00:25:28.009Z,60.40
2017-10-04T00:26:32.867Z,59.70
2017-10-04T00:27:37.884Z,59.80
2017-10-04T00:28:42.499Z,59.80
2017-10-04T00:29:47.644Z,59.90
2017-10-04T00:30:52.509Z,60.00
2017-10-04T00:31:57.463Z,60.10
2017-10-04T00:33:02.164Z,60.20
2017-10-04T00:34:07.001Z,60.20
2017-10-04T00:35:11.768Z,60.20
2017-10-04T00:36:16.745Z,60.20
2017-10-04T00:37:21.353Z,60.20
2017-10-04T00:38:26.403Z,60.20
2017-10-04T00:39:31.342Z,60.20
2017-10-04T00:40:36.144Z,60.20
2017-10-04T00:41:40.970Z,60.20
2017-10-04T00:42:45.612Z,60.20
2017-10-04T00:43:50.439Z,60.20
2017-10-04T00:44:55.401Z,60.20
2017-10-04T00:46:00.278Z,60.20
2017-10-04T00:47:05.077Z,60.20
2017-10-04T00:48:09.922Z,60.20
2017-10-04T00:49:14.921Z,60.30
2017-10-04T00:50:19.604Z,60.30
2017-10-04T00:51:24.559Z,60.30
2017-10-04T00:52:29.172Z,60.40
2017-10-04T00:53:34.147Z,60.40
2017-10-04T00:54:38.904Z,60.50
2017-10-04T00:55:43.763Z,60.50
2017-10-04T00:56:48.436Z,60.40
2017-10-04T00:57:53.233Z,60.40
2017-10-04T00:58:58.198Z,60.30
2017-10-04T01:00:02.900Z,60.30
2017-10-04T01:01:07.731Z,60.20
2017-10-04T01:02:12.421Z,58.00
2017-10-04T01:03:17.358Z,56.30
2017-10-04T01:04:22.200Z,55.40
2017-10-04T01:05:26.925Z,55.60
2017-10-04T01:06:31.814Z,55.50
2017-10-04T01:07:36.687Z,55.40
2017-10-04T01:08:41.524Z,55.70
2017-10-04T01:09:46.435Z,55.50
2017-10-04T01:10:51.387Z,55.30
2017-10-04T01:11:56.057Z,55.20
2017-10-04T01:13:00.851Z,54.70
2017-10-04T01:14:05.927Z,54.60
2017-10-04T01:15:10.902Z,54.50
2017-10-04T01:16:15.734Z,54.50
2017-10-04T01:17:20.557Z,54.60
2017-10-04T01:18:25.347Z,54.60
2017-10-04T01:19:30.281Z,54.50
2017-10-04T01:20:35.079Z,54.40
2017-10-04T01:21:40.113Z,54.50
2017-10-04T01:22:45.090Z,54.50
2017-10-04T01:23:50.137Z,54.40
2017-10-04T01:24:54.984Z,54.30
2017-10-04T01:26:00.083Z,54.30
2017-10-04T01:27:04.960Z,54.30
2017-10-04T01:28:09.634Z,54.20
2017-10-04T01:29:14.338Z,54.20
2017-10-04T01:30:19.125Z,54.20
2017-10-04T01:31:23.719Z,54.80
2017-10-04T01:32:28.499Z,54.10
2017-10-04T01:33:33.337Z,54.10
2017-10-04T01:34:38.217Z,54.20
2017-10-04T01:35:43.172Z,54.20
2017-10-04T01:36:48.200Z,54.20
2017-10-04T01:37:52.988Z,54.30
2017-10-04T01:38:57.646Z,54.10
2017-10-04T01:40:02.525Z,54.10
2017-10-04T01:41:07.359Z,54.10
2017-10-04T01:42:12.353Z,54.00
2017-10-04T01:43:17.107Z,54.00
2017-10-04T01:44:21.936Z,54.10
2017-10-04T01:45:26.879Z,54.10
2017-10-04T01:46:31.648Z,54.10
2017-10-04T01:47:36.536Z,54.10
2017-10-04T01:48:41.524Z,54.00
2017-10-04T01:49:46.392Z,54.00
2017-10-04T01:50:51.105Z,54.00
2017-10-04T01:51:55.983Z,54.00
2017-10-04T01:53:00.864Z,53.90
2017-10-04T01:54:05.762Z,53.90
2017-10-04T01:55:10.644Z,53.90
2017-10-04T01:56:15.426Z,53.80
2017-10-04T01:57:20.279Z,53.80
2017-10-04T01:58:25.166Z,53.90
2017-10-04T01:59:29.989Z,53.90
2017-10-04T02:00:34.825Z,53.90
2017-10-04T02:01:39.646Z,54.00
2017-10-04T02:02:44.511Z,54.00
2017-10-04T02:03:49.450Z,54.10
2017-10-04T02:04:54.300Z,54.20
2017-10-04T02:05:59.192Z,54.10
2017-10-04T02:07:03.966Z,54.00
2017-10-04T02:08:08.823Z,54.00
2017-10-04T02:09:13.691Z,53.90
2017-10-04T02:10:18.719Z,54.00
2017-10-04T02:11:23.584Z,54.00
2017-10-04T02:12:28.304Z,53.80
2017-10-04T02:13:34.105Z,53.90
2017-10-04T02:14:39.084Z,53.90
2017-10-04T02:15:43.920Z,53.90
2017-10-04T02:16:48.874Z,53.90
2017-10-04T02:17:53.823Z,54.20
2017-10-04T02:18:58.732Z,54.20
2017-10-04T02:20:03.523Z,54.20
2017-10-04T02:21:08.381Z,54.40
2017-10-04T02:22:13.340Z,54.40
2017-10-04T02:23:18.065Z,54.40
2017-10-04T02:24:22.922Z,54.50
2017-10-04T02:25:27.640Z,54.50
2017-10-04T02:26:32.677Z,54.50
2017-10-04T02:27:37.533Z,54.60
2017-10-04T02:28:42.406Z,54.70
2017-10-04T02:29:47.232Z,54.70
2017-10-04T02:30:52.218Z,54.70
2017-10-04T02:31:57.037Z,54.70
2017-10-04T02:33:01.868Z,54.70
2017-10-04T02:34:06.726Z,54.60
2017-10-04T02:35:11.508Z,54.70
2017-10-04T02:36:16.442Z,54.70
2017-10-04T02:37:21.436Z,54.70
2017-10-04T02:38:26.059Z,54.70
2017-10-04T02:39:30.796Z,54.70
2017-10-04T02:40:35.749Z,54.70
2017-10-04T02:41:40.614Z,54.70
2017-10-04T02:42:45.551Z,54.70
2017-10-04T02:43:50.314Z,54.70
2017-10-04T02:44:55.119Z,54.80
2017-10-04T02:45:59.953Z,54.80
2017-10-04T02:47:04.890Z,54.80
2017-10-04T02:48:09.519Z,54.80
2017-10-04T02:49:14.193Z,54.80
2017-10-04T02:50:19.005Z,54.80
2017-10-04T02:51:23.766Z,54.90
2017-10-04T02:52:28.716Z,54.90
2017-10-04T02:53:33.671Z,54.90
2017-10-04T02:54:38.603Z,55.00
2017-10-04T02:55:43.413Z,55.10
2017-10-04T02:56:48.367Z,55.10
2017-10-04T02:57:53.149Z,55.10
2017-10-04T02:58:57.962Z,55.00
2017-10-04T03:00:02.805Z,55.10
2017-10-04T03:01:07.781Z,55.10
2017-10-04T03:02:12.568Z,55.20
2017-10-04T03:03:17.437Z,55.20
2017-10-04T03:04:22.368Z,55.20
2017-10-04T03:05:27.214Z,55.20
2017-10-04T03:06:32.020Z,55.20
2017-10-04T03:07:36.816Z,55.10
2017-10-04T03:08:41.695Z,55.10
2017-10-04T03:09:46.686Z,55.20
2017-10-04T03:10:51.554Z,55.20
2017-10-04T03:11:56.379Z,55.20
2017-10-04T03:13:01.249Z,55.20
2017-10-04T03:14:06.085Z,55.10
2017-10-04T03:15:10.808Z,55.20
2017-10-04T03:16:15.709Z,55.20
2017-10-04T03:17:20.623Z,55.30
2017-10-04T03:18:25.441Z,55.40
2017-10-04T03:19:30.374Z,55.30
2017-10-04T03:20:35.469Z,55.40
2017-10-04T03:21:40.397Z,55.40
2017-10-04T03:22:45.305Z,55.50
2017-10-04T03:23:50.125Z,56.10
2017-10-04T03:24:54.865Z,55.50
2017-10-04T03:25:59.813Z,55.40
2017-10-04T03:27:04.664Z,55.40
2017-10-04T03:28:09.660Z,55.50
2017-10-04T03:29:14.441Z,55.50
2017-10-04T03:30:19.531Z,55.50
2017-10-04T03:31:24.478Z,55.50
2017-10-04T03:32:29.584Z,55.40
2017-10-04T03:33:34.478Z,55.50
2017-10-04T03:34:39.443Z,55.50
2017-10-04T03:35:44.383Z,55.70
2017-10-04T03:36:49.351Z,55.40
2017-10-04T03:37:54.312Z,55.50
2017-10-04T03:38:59.457Z,55.50
2017-10-04T03:40:04.492Z,55.40
2017-10-04T03:41:09.488Z,55.50
2017-10-04T03:42:14.284Z,55.40
2017-10-04T03:43:19.103Z,55.50
2017-10-04T03:44:24.142Z,55.40
2017-10-04T03:45:29.210Z,55.30
2017-10-04T03:46:33.955Z,55.40
2017-10-04T03:47:39.039Z,55.20
2017-10-04T03:48:43.948Z,55.20
2017-10-04T03:49:48.709Z,55.20
2017-10-04T03:50:53.620Z,55.30
2017-10-04T03:51:58.588Z,55.40
2017-10-04T03:53:03.519Z,55.40
2017-10-04T03:54:08.383Z,55.40
2017-10-04T03:55:13.505Z,55.30
2017-10-04T03:56:18.393Z,55.30
2017-10-04T03:57:23.365Z,55.80
2017-10-04T03:58:28.391Z,55.30
2017-10-04T03:59:33.367Z,55.30
2017-10-04T04:00:38.336Z,55.40
2017-10-04T04:01:43.400Z,55.50
2017-10-04T04:02:48.170Z,55.40
2017-10-04T04:03:53.091Z,55.30
2017-10-04T04:04:58.157Z,55.20
2017-10-04T04:06:03.209Z,55.20
2017-10-04T04:07:08.183Z,55.30
2017-10-04T04:08:13.099Z,55.20
2017-10-04T04:09:18.051Z,55.20
2017-10-04T04:10:22.987Z,55.20
2017-10-04T04:11:27.779Z,55.30
2017-10-04T04:12:32.717Z,55.10
2017-10-04T04:13:37.684Z,55.20
2017-10-04T04:14:42.620Z,55.10
2017-10-04T04:15:47.540Z,55.10
2017-10-04T04:16:52.658Z,55.20
2017-10-04T04:17:57.533Z,55.10
2017-10-04T04:19:02.586Z,55.10
2017-10-04T04:20:07.558Z,55.00
2017-10-04T04:21:12.577Z,55.00
2017-10-04T04:22:17.741Z,55.00
2017-10-04T04:23:22.663Z,55.10
2017-10-04T04:24:27.697Z,55.80
2017-10-04T04:25:32.654Z,55.10
2017-10-04T04:26:37.602Z,55.10
2017-10-04T04:27:42.449Z,55.00
2017-10-04T04:28:47.493Z,55.00
2017-10-04T04:29:52.417Z,54.90
2017-10-04T04:30:57.256Z,55.00
2017-10-04T04:32:02.466Z,54.90
2017-10-04T04:33:07.473Z,54.90
2017-10-04T04:34:12.584Z,55.00
2017-10-04T04:35:17.455Z,55.00
2017-10-04T04:36:22.320Z,55.00
2017-10-04T04:37:27.331Z,54.90
2017-10-04T04:38:32.358Z,55.00
2017-10-04T04:39:37.315Z,54.90
2017-10-04T04:40:42.391Z,54.70
2017-10-04T04:41:47.269Z,54.70
2017-10-04T04:42:52.158Z,54.50
2017-10-04T04:43:56.985Z,54.60
2017-10-04T04:45:01.812Z,54.60
2017-10-04T04:46:06.888Z,54.70
2017-10-04T04:47:11.956Z,54.60
2017-10-04T04:48:17.219Z,54.60
2017-10-04T04:49:23.172Z,54.70
2017-10-04T04:50:28.306Z,54.70
2017-10-04T04:51:33.654Z,54.80
2017-10-04T04:52:38.680Z,54.80
2017-10-04T04:53:44.027Z,55.00
2017-10-04T04:54:49.266Z,55.00
2017-10-04T04:55:54.482Z,55.00
2017-10-04T04:56:59.570Z,55.20
2017-10-04T04:58:04.864Z,55.30
2017-10-04T04:59:10.197Z,55.50
2017-10-04T05:00:15.324Z,55.60
2017-10-04T05:01:20.748Z,55.50
2017-10-04T05:02:26.030Z,55.50
2017-10-04T05:03:31.481Z,55.60
2017-10-04T05:04:36.845Z,55.80
2017-10-04T05:05:42.992Z,55.70
2017-10-04T05:06:49.219Z,55.70
2017-10-04T05:07:54.974Z,55.70
2017-10-04T05:09:00.777Z,55.80
2017-10-04T05:10:06.886Z,55.90
2017-10-04T05:11:13.077Z,56.00
2017-10-04T05:12:18.979Z,56.00
2017-10-04T05:13:24.830Z,56.00
2017-10-04T05:14:30.135Z,56.10
2017-10-04T05:15:35.275Z,56.20
2017-10-04T05:16:41.157Z,56.20
2017-10-04T05:17:46.337Z,56.30
2017-10-04T05:18:51.511Z,56.40
2017-10-04T05:19:56.724Z,56.60
2017-10-04T05:21:01.830Z,56.70
2017-10-04T05:22:07.082Z,56.90
2017-10-04T05:23:12.599Z,57.00
2017-10-04T05:24:17.996Z,56.90
2017-10-04T05:25:23.626Z,56.80
2017-10-04T05:26:29.384Z,56.80
2017-10-04T05:27:34.509Z,56.70
2017-10-04T05:28:39.974Z,56.90
2017-10-04T05:29:45.207Z,56.80
2017-10-04T05:30:51.223Z,56.80
2017-10-04T05:31:56.897Z,56.90
2017-10-04T05:33:02.480Z,56.80
2017-10-04T05:34:07.822Z,56.70
2017-10-04T05:35:13.174Z,56.60
2017-10-04T05:36:18.588Z,56.40
2017-10-04T05:37:23.903Z,56.40
2017-10-04T05:38:30.471Z,56.30
2017-10-04T05:39:35.788Z,56.20
2017-10-04T05:40:41.439Z,56.10
2017-10-04T05:41:46.707Z,56.10
2017-10-04T05:42:51.896Z,55.90
2017-10-04T05:43:57.347Z,55.90
2017-10-04T05:45:03.033Z,55.80
2017-10-04T05:46:08.559Z,55.80
2017-10-04T05:47:13.548Z,55.80
2017-10-04T05:48:18.677Z,55.90
2017-10-04T05:49:24.627Z,55.90
2017-10-04T05:50:29.857Z,55.90
2017-10-04T05:51:34.944Z,56.00
2017-10-04T05:52:40.358Z,56.30
2017-10-04T05:53:46.074Z,56.60
2017-10-04T05:54:52.251Z,56.60
2017-10-04T05:55:57.704Z,56.60
2017-10-04T05:57:03.300Z,56.60
2017-10-04T05:58:08.422Z,56.70
2017-10-04T05:59:13.746Z,56.80
2017-10-04T06:00:19.045Z,56.90
2017-10-04T06:01:24.523Z,57.10
2017-10-04T06:02:30.081Z,57.10
2017-10-04T06:03:35.274Z,57.10
2017-10-04T06:04:40.968Z,57.30
2017-10-04T06:05:46.245Z,57.30
2017-10-04T06:06:51.121Z,57.40
2017-10-04T06:07:56.071Z,57.30
2017-10-04T06:09:01.225Z,57.50
2017-10-04T06:10:06.229Z,57.50
2017-10-04T06:11:11.415Z,57.50
2017-10-04T06:12:16.648Z,57.50
2017-10-04T06:13:21.673Z,57.50
2017-10-04T06:14:26.697Z,57.60
2017-10-04T06:15:31.603Z,57.50
2017-10-04T06:16:36.617Z,57.60
2017-10-04T06:17:41.715Z,57.70
2017-10-04T06:18:46.886Z,57.70
2017-10-04T06:19:51.859Z,57.70
2017-10-04T06:20:57.027Z,57.60
2017-10-04T06:22:01.989Z,57.60
2017-10-04T06:23:07.331Z,57.60
2017-10-04T06:24:12.506Z,57.50
2017-10-04T06:25:17.529Z,57.60
2017-10-04T06:26:22.590Z,57.60
2017-10-04T06:27:27.620Z,57.60
2017-10-04T06:28:32.834Z,57.60
2017-10-04T06:29:37.911Z,57.50
2017-10-04T06:30:42.847Z,57.50
2017-10-04T06:31:47.770Z,57.50
2017-10-04T06:32:52.535Z,57.50
2017-10-04T06:33:57.659Z,57.50
2017-10-04T06:35:02.784Z,57.50
2017-10-04T06:36:07.841Z,57.50
2017-10-04T06:37:12.824Z,57.40
2017-10-04T06:38:17.976Z,57.40
2017-10-04T06:39:22.845Z,57.40
2017-10-04T06:40:27.870Z,57.40
2017-10-04T06:41:33.009Z,57.40
2017-10-04T06:42:37.983Z,57.30
2017-10-04T06:43:43.247Z,57.30
2017-10-04T06:44:48.999Z,57.30
2017-10-04T06:45:53.887Z,57.30
2017-10-04T06:46:59.179Z,57.30
2017-10-04T06:48:04.199Z,57.30
2017-10-04T06:49:09.375Z,57.30
2017-10-04T06:50:14.272Z,57.20
2017-10-04T06:51:19.409Z,57.20
2017-10-04T06:52:24.460Z,57.20
2017-10-04T06:53:29.459Z,57.20
2017-10-04T06:54:34.205Z,57.20
2017-10-04T06:55:39.281Z,57.20
2017-10-04T06:56:44.267Z,57.20
2017-10-04T06:57:49.166Z,57.20
2017-10-04T06:58:54.281Z,57.20
2017-10-04T06:59:59.567Z,57.20
2017-10-04T07:01:04.783Z,57.20
2017-10-04T07:02:09.802Z,57.10
2017-10-04T07:03:14.930Z,57.20
2017-10-04T07:04:20.344Z,57.20
2017-10-04T07:05:25.576Z,57.20
2017-10-04T07:06:30.617Z,57.20
2017-10-04T07:07:35.732Z,57.20
2017-10-04T07:08:40.847Z,57.20
2017-10-04T07:09:45.924Z,57.20
2017-10-04T07:10:50.773Z,57.10
2017-10-04T07:11:55.760Z,57.10
2017-10-04T07:13:00.941Z,57.10
2017-10-04T07:14:06.006Z,57.10
2017-10-04T07:15:10.943Z,57.10
2017-10-04T07:16:16.290Z,57.10
2017-10-04T07:17:21.448Z,57.10
2017-10-04T07:18:26.411Z,57.10
2017-10-04T07:19:31.399Z,57.20
2017-10-04T07:20:36.321Z,57.10
2017-10-04T07:21:41.423Z,57.10
2017-10-04T07:22:46.526Z,57.10
2017-10-04T07:23:51.459Z,57.10
2017-10-04T07:24:56.388Z,57.10
2017-10-04T07:26:01.509Z,57.10
2017-10-04T07:27:07.609Z,57.10
2017-10-04T07:28:12.617Z,57.10
2017-10-04T07:29:17.841Z,57.00
2017-10-04T07:30:23.558Z,57.10
2017-10-04T07:31:28.574Z,57.10
2017-10-04T07:32:33.487Z,57.00
2017-10-04T07:33:38.541Z,57.00
2017-10-04T07:34:43.442Z,56.90
2017-10-04T07:35:48.324Z,56.90
2017-10-04T07:36:53.511Z,57.00
2017-10-04T07:37:58.513Z,57.00
2017-10-04T07:39:03.538Z,56.90
2017-10-04T07:40:08.620Z,57.00
2017-10-04T07:41:13.602Z,57.00
2017-10-04T07:42:18.632Z,57.00
2017-10-04T07:43:23.642Z,57.00
2017-10-04T07:44:28.767Z,56.90
2017-10-04T07:45:33.926Z,57.00
2017-10-04T07:46:38.853Z,57.00
2017-10-04T07:47:43.869Z,57.00
2017-10-04T07:48:48.842Z,57.00
2017-10-04T07:49:53.937Z,57.00
2017-10-04T07:50:58.899Z,57.00
2017-10-04T07:52:04.171Z,57.00
2017-10-04T07:53:09.200Z,57.10
2017-10-04T07:54:14.203Z,57.10
2017-10-04T07:55:19.426Z,57.10
2017-10-04T07:56:24.677Z,57.10
2017-10-04T07:57:29.680Z,57.10
2017-10-04T07:58:34.691Z,57.20
2017-10-04T07:59:39.690Z,57.10
2017-10-04T08:00:44.830Z,57.10
2017-10-04T08:01:49.954Z,57.10
2017-10-04T08:02:54.797Z,57.10
2017-10-04T08:04:00.498Z,57.10
2017-10-04T08:05:05.497Z,57.10
2017-10-04T08:06:10.720Z,57.10
2017-10-04T08:07:15.862Z,57.10
2017-10-04T08:08:21.041Z,57.10
2017-10-04T08:09:26.100Z,57.10
2017-10-04T08:10:31.127Z,57.10
2017-10-04T08:11:36.340Z,57.10
2017-10-04T08:12:41.427Z,57.20
2017-10-04T08:13:46.275Z,57.20
2017-10-04T08:14:51.227Z,57.10
2017-10-04T08:15:56.129Z,57.10
2017-10-04T08:17:01.160Z,57.20
2017-10-04T08:18:06.257Z,57.10
2017-10-04T08:19:11.221Z,57.10
2017-10-04T08:20:16.186Z,57.10
2017-10-04T08:21:21.011Z,57.20
2017-10-04T08:22:25.979Z,57.10
2017-10-04T08:23:30.968Z,57.20
2017-10-04T08:24:36.142Z,57.20
2017-10-04T08:25:41.330Z,57.20
2017-10-04T08:26:46.415Z,57.20
2017-10-04T08:27:51.469Z,57.20
2017-10-04T08:28:56.392Z,57.20
2017-10-04T08:30:01.481Z,57.20
2017-10-04T08:31:06.543Z,57.20
2017-10-04T08:32:11.557Z,57.20
2017-10-04T08:33:16.679Z,57.20
2017-10-04T08:34:22.000Z,57.20
2017-10-04T08:35:27.064Z,57.30
2017-10-04T08:36:32.515Z,57.30
2017-10-04T08:37:37.538Z,57.30
2017-10-04T08:38:42.601Z,57.30
2017-10-04T08:39:47.490Z,57.30
2017-10-04T08:40:52.700Z,57.30
2017-10-04T08:41:57.692Z,57.30
2017-10-04T08:43:02.609Z,57.30
2017-10-04T08:44:07.623Z,57.30
2017-10-04T08:45:12.562Z,57.30
2017-10-04T08:46:17.730Z,57.30
2017-10-04T08:47:22.745Z,57.40
2017-10-04T08:48:27.587Z,57.30
2017-10-04T08:49:32.572Z,57.30
2017-10-04T08:50:37.436Z,57.30
2017-10-04T08:51:42.647Z,57.30
2017-10-04T08:52:47.604Z,57.30
2017-10-04T08:53:52.451Z,57.30
2017-10-04T08:54:57.644Z,57.40
2017-10-04T08:56:02.679Z,57.40
2017-10-04T08:57:07.924Z,57.40
2017-10-04T08:58:12.874Z,57.30
2017-10-04T08:59:18.026Z,57.30
2017-10-04T09:00:23.242Z,57.30
2017-10-04T09:01:28.465Z,57.30
2017-10-04T09:02:33.728Z,57.40
2017-10-04T09:03:38.803Z,57.40
2017-10-04T09:04:43.657Z,57.40
2017-10-04T09:05:48.599Z,57.40
2017-10-04T09:06:53.698Z,57.40
2017-10-04T09:07:58.732Z,57.40
2017-10-04T09:09:04.007Z,57.30
2017-10-04T09:10:09.115Z,57.30
2017-10-04T09:11:14.210Z,57.30
2017-10-04T09:12:19.004Z,57.30
2017-10-04T09:13:27.032Z,57.30
2017-10-04T09:14:32.165Z,57.20
2017-10-04T09:15:37.145Z,57.20
2017-10-04T09:16:42.165Z,57.10
2017-10-04T09:17:47.052Z,57.10
2017-10-04T09:18:52.050Z,57.10
2017-10-04T09:19:57.184Z,57.10
2017-10-04T09:21:02.918Z,57.10
2017-10-04T09:22:08.359Z,57.10
2017-10-04T09:23:13.929Z,56.70
2017-10-04T09:24:19.195Z,56.60
2017-10-04T09:25:25.939Z,55.50
2017-10-04T09:26:31.231Z,54.80
2017-10-04T09:27:37.043Z,55.30
2017-10-04T09:28:42.540Z,55.10
2017-10-04T09:29:47.881Z,55.50
2017-10-04T09:30:53.616Z,55.50
2017-10-04T09:31:59.378Z,54.80
2017-10-04T09:33:04.520Z,54.90
2017-10-04T09:34:10.099Z,55.20
2017-10-04T09:35:15.400Z,55.30
2017-10-04T09:36:20.686Z,55.80
2017-10-04T09:37:25.907Z,55.50
2017-10-04T09:38:31.569Z,55.60
2017-10-04T09:39:37.262Z,55.70
2017-10-04T09:40:42.793Z,56.60
2017-10-04T09:41:48.313Z,56.90
2017-10-04T09:42:54.062Z,57.10
2017-10-04T09:43:59.282Z,57.20
2017-10-04T09:45:04.775Z,57.30
2017-10-04T09:46:11.093Z,57.20
2017-10-04T09:47:16.317Z,57.20
2017-10-04T09:48:21.796Z,57.30
2017-10-04T09:49:27.663Z,57.50
2017-10-04T09:50:33.579Z,57.40
2017-10-04T09:51:40.550Z,57.40
2017-10-04T09:52:46.285Z,57.40
2017-10-04T09:53:52.909Z,57.40
2017-10-04T09:54:59.684Z,57.40
2017-10-04T09:56:06.029Z,57.50
2017-10-04T09:57:13.312Z,57.60
2017-10-04T09:58:19.848Z,57.60
2017-10-04T09:59:26.082Z,57.80
2017-10-04T10:00:32.242Z,57.60
2017-10-04T10:01:38.509Z,57.60
2017-10-04T10:02:44.259Z,57.00
2017-10-04T10:03:50.820Z,55.10
2017-10-04T10:04:58.006Z,53.70
2017-10-04T10:06:04.140Z,52.90
2017-10-04T10:07:10.713Z,53.40
2017-10-04T10:08:17.538Z,53.20
2017-10-04T10:09:24.909Z,53.00
2017-10-04T10:10:30.767Z,53.10
2017-10-04T10:11:38.266Z,53.00
2017-10-04T10:12:48.129Z,52.90
2017-10-04T10:13:55.981Z,52.60
2017-10-04T10:15:03.989Z,52.90
2017-10-04T10:16:12.810Z,52.30
2017-10-04T10:17:21.006Z,52.40
2017-10-04T10:18:28.405Z,52.50
2017-10-04T10:19:37.082Z,52.80
2017-10-04T10:20:45.509Z,52.80
2017-10-04T10:21:52.237Z,52.40
2017-10-04T10:23:02.915Z,52.00
2017-10-04T10:24:11.750Z,51.80
2017-10-04T10:25:19.917Z,51.90
2017-10-04T10:26:30.006Z,51.80
2017-10-04T10:27:35.997Z,52.10
2017-10-04T10:28:45.260Z,52.30
2017-10-04T10:29:53.369Z,52.40
2017-10-04T10:31:02.541Z,52.40
2017-10-04T10:32:10.067Z,52.50
2017-10-04T10:33:18.634Z,52.60
2017-10-04T10:34:26.968Z,52.70
2017-10-04T10:35:35.357Z,52.80
2017-10-04T10:36:43.980Z,52.80
2017-10-04T10:37:51.449Z,52.90
2017-10-04T10:38:58.856Z,52.90
2017-10-04T10:40:05.257Z,53.00
2017-10-04T10:41:12.299Z,53.10
2017-10-04T10:42:18.250Z,53.20
2017-10-04T10:43:24.860Z,53.30
2017-10-04T10:44:31.757Z,53.30
2017-10-04T10:45:38.021Z,53.40
2017-10-04T10:46:44.250Z,53.40
2017-10-04T10:47:50.618Z,53.30
2017-10-04T10:48:56.769Z,53.40
2017-10-04T10:50:03.431Z,53.50
2017-10-04T10:51:09.441Z,53.50
2017-10-04T10:52:16.384Z,53.50
2017-10-04T10:53:23.136Z,53.50
2017-10-04T10:54:29.984Z,53.40
2017-10-04T10:55:37.257Z,53.40
2017-10-04T10:56:44.988Z,53.50
2017-10-04T10:57:51.509Z,53.40
2017-10-04T10:58:58.212Z,53.30
2017-10-04T11:00:04.655Z,53.50
2017-10-04T11:01:11.480Z,53.50
2017-10-04T11:02:18.376Z,53.40
2017-10-04T11:03:24.898Z,53.50
2017-10-04T11:04:30.621Z,53.50
2017-10-04T11:05:36.862Z,53.60
2017-10-04T11:06:42.500Z,53.60
2017-10-04T11:07:47.842Z,53.50
2017-10-04T11:08:53.289Z,53.50
2017-10-04T11:10:00.025Z,53.60
2017-10-04T11:11:05.340Z,53.50
2017-10-04T11:12:10.644Z,53.50
2017-10-04T11:13:16.083Z,53.60
2017-10-04T11:14:21.760Z,53.70
2017-10-04T11:15:26.902Z,53.70
2017-10-04T11:16:32.034Z,53.60
2017-10-04T11:17:37.365Z,53.80
2017-10-04T11:18:42.803Z,53.80
2017-10-04T11:19:48.431Z,53.70
2017-10-04T11:20:53.595Z,53.80
2017-10-04T11:21:58.778Z,53.70
2017-10-04T11:23:04.004Z,53.70
2017-10-04T11:24:09.685Z,53.80
2017-10-04T11:25:15.480Z,53.70
2017-10-04T11:26:21.078Z,53.60
2017-10-04T11:27:26.670Z,53.80
2017-10-04T11:28:31.910Z,53.70
2017-10-04T11:29:37.240Z,53.90
2017-10-04T11:30:42.666Z,53.90
2017-10-04T11:31:48.723Z,54.50
2017-10-04T11:32:55.175Z,53.80
2017-10-04T11:34:01.853Z,53.70
2017-10-04T11:35:08.018Z,53.70
2017-10-04T11:36:15.455Z,53.80
2017-10-04T11:37:21.454Z,54.40
2017-10-04T11:38:27.029Z,53.80
2017-10-04T11:39:32.580Z,53.80
2017-10-04T11:40:38.098Z,53.60
2017-10-04T11:41:44.257Z,53.60
2017-10-04T11:42:51.061Z,53.60
2017-10-04T11:43:58.224Z,53.40
2017-10-04T11:45:06.629Z,53.50
2017-10-04T11:46:13.489Z,53.60
2017-10-04T11:47:20.500Z,53.50
2017-10-04T11:48:27.941Z,53.50
2017-10-04T11:49:33.330Z,52.90
2017-10-04T11:50:39.929Z,52.60
2017-10-04T11:51:46.637Z,52.50
2017-10-04T11:52:53.286Z,52.50
2017-10-04T11:54:00.029Z,52.00
2017-10-04T11:55:06.882Z,51.80
2017-10-04T11:56:13.594Z,51.90
2017-10-04T11:57:19.940Z,52.60
2017-10-04T11:58:27.641Z,53.00
2017-10-04T11:59:34.911Z,53.00
2017-10-04T12:00:41.885Z,53.20
2017-10-04T12:01:48.457Z,53.30
2017-10-04T12:02:55.669Z,53.40
2017-10-04T12:04:03.064Z,53.60
2017-10-04T12:05:10.007Z,53.70
2017-10-04T12:06:17.143Z,53.70
2017-10-04T12:07:23.689Z,53.80
2017-10-04T12:08:30.783Z,53.70
2017-10-04T12:09:38.172Z,53.70
2017-10-04T12:10:44.508Z,53.70
2017-10-04T12:11:51.480Z,53.70
2017-10-04T12:12:58.145Z,53.70
2017-10-04T12:14:05.186Z,53.80
2017-10-04T12:15:11.482Z,53.80
2017-10-04T12:16:17.623Z,53.90
2017-10-04T12:17:23.768Z,53.80
2017-10-04T12:18:30.416Z,53.90
2017-10-04T12:19:36.962Z,53.80
2017-10-04T12:20:43.011Z,53.90
2017-10-04T12:21:49.601Z,54.00
2017-10-04T12:22:56.164Z,54.10
2017-10-04T12:24:03.600Z,54.90
2017-10-04T12:25:09.690Z,54.30
2017-10-04T12:26:16.024Z,54.40
2017-10-04T12:27:21.257Z,54.50
2017-10-04T12:28:27.287Z,54.60
2017-10-04T12:29:33.537Z,54.60
2017-10-04T12:30:39.416Z,54.70
2017-10-04T12:31:45.825Z,54.80
2017-10-04T12:32:51.237Z,54.80
2017-10-04T12:33:56.478Z,54.90
2017-10-04T12:35:02.269Z,54.80
2017-10-04T12:36:08.914Z,54.80
2017-10-04T12:37:17.254Z,54.80
2017-10-04T12:38:23.969Z,54.80
2017-10-04T12:39:30.481Z,54.80
2017-10-04T12:40:35.817Z,54.80
2017-10-04T12:41:41.035Z,54.70
2017-10-04T12:42:47.760Z,54.70
2017-10-04T12:43:54.260Z,54.60
2017-10-04T12:44:59.689Z,54.70
2017-10-04T12:46:05.518Z,54.60
2017-10-04T12:47:11.281Z,54.50
2017-10-04T12:48:16.693Z,54.50
2017-10-04T12:49:22.238Z,54.40
2017-10-04T12:50:27.889Z,54.50
2017-10-04T12:51:33.274Z,54.40
2017-10-04T12:52:38.623Z,54.40
2017-10-04T12:53:44.349Z,54.50
2017-10-04T12:54:49.805Z,54.50
2017-10-04T12:55:55.250Z,54.60
2017-10-04T12:57:00.683Z,54.70
2017-10-04T12:58:05.832Z,54.70
2017-10-04T12:59:11.114Z,54.80
2017-10-04T13:00:16.730Z,55.00
2017-10-04T13:01:22.090Z,54.90
2017-10-04T13:02:27.810Z,55.30
2017-10-04T13:03:33.058Z,55.90
2017-10-04T13:04:38.494Z,55.60
2017-10-04T13:05:43.927Z,55.40
2017-10-04T13:06:49.461Z,55.20
2017-10-04T13:07:56.471Z,55.20
2017-10-04T13:09:02.584Z,55.20
2017-10-04T13:10:08.226Z,55.10
2017-10-04T13:11:13.761Z,55.20
2017-10-04T13:12:19.298Z,55.20
2017-10-04T13:13:24.387Z,55.20
2017-10-04T13:14:29.878Z,55.20
2017-10-04T13:15:37.671Z,55.30
2017-10-04T13:16:44.458Z,55.30
2017-10-04T13:17:50.989Z,55.30
2017-10-04T13:18:58.256Z,55.30
2017-10-04T13:20:04.407Z,55.30
2017-10-04T13:21:09.708Z,55.30
2017-10-04T13:22:15.180Z,55.30
2017-10-04T13:23:20.624Z,55.30
2017-10-04T13:24:25.890Z,55.30
2017-10-04T13:25:31.338Z,55.30
2017-10-04T13:26:36.934Z,55.30
2017-10-04T13:27:42.691Z,55.20
2017-10-04T13:28:48.466Z,55.30
2017-10-04T13:29:54.222Z,55.30
2017-10-04T13:31:00.137Z,55.30
2017-10-04T13:32:05.710Z,55.30
2017-10-04T13:33:11.388Z,55.40
2017-10-04T13:34:16.891Z,55.30
2017-10-04T13:35:22.308Z,55.30
2017-10-04T13:36:27.818Z,55.30
2017-10-04T13:37:33.571Z,55.30
2017-10-04T13:38:39.232Z,55.30
2017-10-04T13:39:45.124Z,55.30
2017-10-04T13:40:50.534Z,55.30
2017-10-04T13:41:56.369Z,55.30
2017-10-04T13:43:02.340Z,55.40
2017-10-04T13:44:07.827Z,55.30
2017-10-04T13:45:12.942Z,55.30
2017-10-04T13:46:18.180Z,55.40
2017-10-04T13:47:23.624Z,55.30
2017-10-04T13:48:29.298Z,55.30
2017-10-04T13:49:34.527Z,55.30
2017-10-04T13:50:39.942Z,55.30
2017-10-04T13:51:45.837Z,55.30
2017-10-04T13:52:51.594Z,55.30
2017-10-04T13:53:57.975Z,55.30
2017-10-04T13:55:03.647Z,55.30
2017-10-04T13:56:09.108Z,55.40
2017-10-04T13:57:14.551Z,55.40
2017-10-04T13:58:19.812Z,55.40
2017-10-04T13:59:25.376Z,55.40
2017-10-04T14:00:30.897Z,55.40
2017-10-04T14:01:36.100Z,55.50
2017-10-04T14:02:41.698Z,56.00